Airfield :
LOGIN :

Register | Disclaimer

   EN    FR    IT 

 










Legend :    VFR   Marginal VFR   IFR   Intensive IFR   Very Intensive IFR
Visi :
Ceiling :
>= 8 km
>= 3000ft
5 to 8 km
1000 to 3000 ft
1500m to 5 km
500 to 1000 ft
800 to 1500m
200 to 500 ft
< 800m
< 200 ft
Symbols :   Thunderstorms  Fog  Heavy snow  Heavy precipitations  Wind > 20 kt
SIGMETs :     Misc.  Thunderstorms  Icing  Turbulence  Mountain Waves  Volcanic Ashes






- Airport Elevation : 74 ft
- IATA code : MRS


LFML - Marseille / Marignane

CURRENT METAR :
  • 201030Z AUTO 26005KT CAVOK 17/05 Q1015 NOSIG

EXPIRED METARs :
  • 201000Z AUTO 26005KT CAVOK 16/07 Q1015 NOSIG
  • 200930Z AUTO 27006KT CAVOK 14/09 Q1015 NOSIG
  • 200900Z AUTO 28005KT CAVOK 13/08 Q1015 NOSIG
  • 200830Z AUTO 29003KT 250V320 CAVOK 13/08 Q1015 NOSIG

TAF TAF LFML
Valid from the 20 at 09:00 until the 21 at 15:00 UTC


200800Z 2009/2115 VRB04KT CAVOK TX19/2013Z TN11/2103Z
BECMG 2011/2013 22010KT
BECMG 2019/2021 VRB05KT
BECMG 2102/2104 RA FEW012 BKN040 BKN100
BECMG 2113/2115 18010KT
ATIS : +33 4 42 31 15 15



MET'MAP, your aeronautical weather chart ! - Copyright ORBIFLY December 2007 - Disclaimer

ORBIFLY MET'MAP TEAM :

Programming & Development : Alexandra Zaïnal
Concept & original design : Baudouin d'Aumeries
Assistance for programming : Marc-Olivier Méhu
Technical & hardware support : Manuel Goepfert

Contact : metmap@orbifly.com




SOURCES & CREDITS :

   NOAA